sensor_id;sensor_type;location;lat;lon;timestamp;P1;durP1;ratioP1;P2;durP2;ratioP2
50281;SDS011;36176;51.506;10.272;2023-11-22T05:15:36;7.77;;;5.40;;
50281;SDS011;36176;51.506;10.272;2023-11-22T05:18:03;5.50;;;4.30;;
50281;SDS011;36176;51.506;10.272;2023-11-22T05:20:30;5.07;;;4.50;;
50281;SDS011;36176;51.506;10.272;2023-11-22T05:23:01;7.13;;;5.57;;
50281;SDS011;36176;51.506;10.272;2023-11-22T05:25:29;5.53;;;4.40;;
50281;SDS011;36176;51.506;10.272;2023-11-22T05:27:56;8.27;;;6.93;;
50281;SDS011;36176;51.506;10.272;2023-11-22T05:30:23;9.20;;;7.33;;
50281;SDS011;36176;51.506;10.272;2023-11-22T05:32:51;7.60;;;6.73;;
50281;SDS011;36176;51.506;10.272;2023-11-22T05:35:18;8.00;;;6.03;;
50281;SDS011;36176;51.506;10.272;2023-11-22T05:37:45;5.73;;;4.73;;
50281;SDS011;36176;51.506;10.272;2023-11-22T05:40:12;5.50;;;4.20;;
50281;SDS011;36176;51.506;10.272;2023-11-22T05:42:39;5.80;;;4.47;;
50281;SDS011;36176;51.506;10.272;2023-11-22T05:45:07;6.03;;;5.07;;
50281;SDS011;36176;51.506;10.272;2023-11-22T05:47:34;6.40;;;4.67;;
50281;SDS011;36176;51.506;10.272;2023-11-22T05:50:02;5.03;;;4.30;;
50281;SDS011;36176;51.506;10.272;2023-11-22T05:52:29;5.63;;;4.13;;
50281;SDS011;36176;51.506;10.272;2023-11-22T05:54:57;5.50;;;4.30;;
50281;SDS011;36176;51.506;10.272;2023-11-22T05:57:24;4.13;;;3.67;;
50281;SDS011;36176;51.506;10.272;2023-11-22T05:59:51;5.23;;;4.37;;
50281;SDS011;36176;51.506;10.272;2023-11-22T06:02:18;9.43;;;6.67;;
50281;SDS011;36176;51.506;10.272;2023-11-22T06:04:46;9.63;;;8.00;;
50281;SDS011;36176;51.506;10.272;2023-11-22T06:07:13;9.87;;;7.33;;
50281;SDS011;36176;51.506;10.272;2023-11-22T06:09:50;8.57;;;6.30;;
50281;SDS011;36176;51.506;10.272;2023-11-22T06:12:19;8.97;;;6.87;;
50281;SDS011;36176;51.506;10.272;2023-11-22T06:14:47;8.30;;;6.67;;
50281;SDS011;36176;51.506;10.272;2023-11-22T06:17:14;8.73;;;6.70;;
50281;SDS011;36176;51.506;10.272;2023-11-22T06:19:41;7.57;;;6.10;;
50281;SDS011;36176;51.506;10.272;2023-11-22T06:22:08;7.83;;;6.20;;
50281;SDS011;36176;51.506;10.272;2023-11-22T06:24:36;8.87;;;6.83;;
50281;SDS011;36176;51.506;10.272;2023-11-22T06:27:03;9.17;;;6.47;;
50281;SDS011;36176;51.506;10.272;2023-11-22T06:29:31;7.07;;;5.40;;
50281;SDS011;36176;51.506;10.272;2023-11-22T06:31:58;5.50;;;4.87;;
50281;SDS011;36176;51.506;10.272;2023-11-22T06:34:25;7.47;;;4.83;;
50281;SDS011;36176;51.506;10.272;2023-11-22T06:36:52;6.63;;;5.20;;
50281;SDS011;36176;51.506;10.272;2023-11-22T06:39:20;4.90;;;4.40;;
50281;SDS011;36176;51.506;10.272;2023-11-22T06:41:47;6.17;;;5.30;;
50281;SDS011;36176;51.506;10.272;2023-11-22T06:44:14;6.77;;;5.33;;
50281;SDS011;36176;51.506;10.272;2023-11-22T06:46:41;5.40;;;4.63;;
50281;SDS011;36176;51.506;10.272;2023-11-22T06:49:08;5.53;;;4.53;;
50281;SDS011;36176;51.506;10.272;2023-11-22T06:51:36;7.03;;;5.53;;
50281;SDS011;36176;51.506;10.272;2023-11-22T06:54:03;7.50;;;6.17;;
50281;SDS011;36176;51.506;10.272;2023-11-22T06:56:30;5.53;;;4.70;;
50281;SDS011;36176;51.506;10.272;2023-11-22T06:58:57;6.33;;;4.67;;
50281;SDS011;36176;51.506;10.272;2023-11-22T07:01:25;5.97;;;4.33;;
50281;SDS011;36176;51.506;10.272;2023-11-22T07:03:53;7.23;;;4.50;;
50281;SDS011;36176;51.506;10.272;2023-11-22T07:06:20;4.77;;;4.03;;
50281;SDS011;36176;51.506;10.272;2023-11-22T07:08:47;5.37;;;4.40;;
50281;SDS011;36176;51.506;10.272;2023-11-22T07:11:21;5.33;;;4.00;;
50281;SDS011;36176;51.506;10.272;2023-11-22T07:13:48;5.53;;;4.17;;
50281;SDS011;36176;51.506;10.272;2023-11-22T07:16:16;4.13;;;3.70;;
50281;SDS011;36176;51.506;10.272;2023-11-22T07:18:44;6.00;;;4.00;;
50281;SDS011;36176;51.506;10.272;2023-11-22T07:21:12;6.33;;;5.20;;
50281;SDS011;36176;51.506;10.272;2023-11-22T07:23:39;6.20;;;4.77;;
50281;SDS011;36176;51.506;10.272;2023-11-22T07:26:07;6.10;;;4.80;;
50281;SDS011;36176;51.506;10.272;2023-11-22T07:28:34;5.53;;;4.80;;
50281;SDS011;36176;51.506;10.272;2023-11-22T07:31:02;7.63;;;6.43;;
50281;SDS011;36176;51.506;10.272;2023-11-22T07:33:30;6.40;;;5.27;;
50281;SDS011;36176;51.506;10.272;2023-11-22T07:35:58;7.43;;;5.50;;
50281;SDS011;36176;51.506;10.272;2023-11-22T07:38:25;7.93;;;5.73;;
50281;SDS011;36176;51.506;10.272;2023-11-22T07:40:52;7.07;;;5.60;;
50281;SDS011;36176;51.506;10.272;2023-11-22T07:43:20;7.17;;;5.90;;
50281;SDS011;36176;51.506;10.272;2023-11-22T07:45:47;10.97;;;7.83;;
50281;SDS011;36176;51.506;10.272;2023-11-22T07:48:14;9.67;;;8.40;;
50281;SDS011;36176;51.506;10.272;2023-11-22T07:50:42;8.77;;;7.87;;
50281;SDS011;36176;51.506;10.272;2023-11-22T07:53:12;8.00;;;7.10;;
50281;SDS011;36176;51.506;10.272;2023-11-22T07:55:40;9.70;;;8.70;;
50281;SDS011;36176;51.506;10.272;2023-11-22T07:58:09;10.87;;;9.43;;
50281;SDS011;36176;51.506;10.272;2023-11-22T08:00:36;12.03;;;8.83;;
50281;SDS011;36176;51.506;10.272;2023-11-22T08:03:03;10.63;;;9.47;;
50281;SDS011;36176;51.506;10.272;2023-11-22T08:05:37;8.30;;;7.50;;
50281;SDS011;36176;51.506;10.272;2023-11-22T08:08:05;7.23;;;6.33;;
50281;SDS011;36176;51.506;10.272;2023-11-22T08:10:36;7.57;;;6.80;;
50281;SDS011;36176;51.506;10.272;2023-11-22T08:13:06;7.17;;;6.10;;
50281;SDS011;36176;51.506;10.272;2023-11-22T08:15:34;7.93;;;6.53;;
50281;SDS011;36176;51.506;10.272;2023-11-22T08:18:01;7.80;;;6.27;;
50281;SDS011;36176;51.506;10.272;2023-11-22T08:20:34;7.50;;;6.70;;
50281;SDS011;36176;51.506;10.272;2023-11-22T08:23:07;6.20;;;5.60;;
50281;SDS011;36176;51.506;10.272;2023-11-22T08:25:40;6.80;;;6.10;;
50281;SDS011;36176;51.506;10.272;2023-11-22T08:28:10;7.43;;;6.53;;
50281;SDS011;36176;51.506;10.272;2023-11-22T08:30:38;7.33;;;6.33;;
50281;SDS011;36176;51.506;10.272;2023-11-22T08:33:05;6.77;;;6.07;;
50281;SDS011;36176;51.506;10.272;2023-11-22T08:35:37;6.60;;;6.00;;
50281;SDS011;36176;51.506;10.272;2023-11-22T08:38:05;6.67;;;5.97;;
50281;SDS011;36176;51.506;10.272;2023-11-22T08:40:32;6.67;;;5.83;;
50281;SDS011;36176;51.506;10.272;2023-11-22T08:43:00;6.77;;;6.00;;
50281;SDS011;36176;51.506;10.272;2023-11-22T08:45:27;6.00;;;5.40;;
50281;SDS011;36176;51.506;10.272;2023-11-22T08:47:57;7.20;;;6.50;;
50281;SDS011;36176;51.506;10.272;2023-11-22T08:50:27;6.83;;;6.13;;
50281;SDS011;36176;51.506;10.272;2023-11-22T08:52:55;7.40;;;6.60;;
50281;SDS011;36176;51.506;10.272;2023-11-22T08:55:22;7.27;;;6.57;;
50281;SDS011;36176;51.506;10.272;2023-11-22T08:57:49;7.93;;;6.67;;
50281;SDS011;36176;51.506;10.272;2023-11-22T09:00:17;8.13;;;7.23;;
50281;SDS011;36176;51.506;10.272;2023-11-22T09:02:45;10.90;;;9.80;;
50281;SDS011;36176;51.506;10.272;2023-11-22T09:05:19;8.87;;;7.97;;
50281;SDS011;36176;51.506;10.272;2023-11-22T09:07:47;9.33;;;7.30;;
50281;SDS011;36176;51.506;10.272;2023-11-22T09:10:14;9.03;;;8.07;;
50281;SDS011;36176;51.506;10.272;2023-11-22T09:12:42;9.70;;;8.40;;
50281;SDS011;36176;51.506;10.272;2023-11-22T09:15:11;8.67;;;7.77;;
50281;SDS011;36176;51.506;10.272;2023-11-22T09:17:41;9.37;;;8.43;;
50281;SDS011;36176;51.506;10.272;2023-11-22T09:20:12;9.70;;;8.30;;
50281;SDS011;36176;51.506;10.272;2023-11-22T09:25:10;9.80;;;8.80;;
50281;SDS011;36176;51.506;10.272;2023-11-22T09:27:37;10.10;;;9.10;;
50281;SDS011;36176;51.506;10.272;2023-11-22T09:30:04;9.40;;;8.50;;
50281;SDS011;36176;51.506;10.272;2023-11-22T09:32:32;10.23;;;9.20;;
50281;SDS011;36176;51.506;10.272;2023-11-22T09:34:59;9.80;;;8.80;;
50281;SDS011;36176;51.506;10.272;2023-11-22T09:37:26;9.13;;;8.20;;
50281;SDS011;36176;51.506;10.272;2023-11-22T09:39:53;9.70;;;8.70;;
50281;SDS011;36176;51.506;10.272;2023-11-22T09:42:20;10.07;;;9.07;;
50281;SDS011;36176;51.506;10.272;2023-11-22T09:44:47;9.40;;;8.40;;
50281;SDS011;36176;51.506;10.272;2023-11-22T09:47:15;10.40;;;9.37;;
50281;SDS011;36176;51.506;10.272;2023-11-22T09:49:43;10.50;;;9.50;;
50281;SDS011;36176;51.506;10.272;2023-11-22T09:52:12;10.57;;;9.43;;
50281;SDS011;36176;51.506;10.272;2023-11-22T09:54:44;11.90;;;10.60;;
50281;SDS011;36176;51.506;10.272;2023-11-22T09:57:12;10.33;;;9.27;;
50281;SDS011;36176;51.506;10.272;2023-11-22T09:59:41;11.30;;;9.47;;
50281;SDS011;36176;51.506;10.272;2023-11-22T10:02:08;10.73;;;9.63;;
50281;SDS011;36176;51.506;10.272;2023-11-22T10:04:37;10.30;;;9.20;;
50281;SDS011;36176;51.506;10.272;2023-11-22T10:07:04;10.23;;;9.13;;
50281;SDS011;36176;51.506;10.272;2023-11-22T10:09:31;9.87;;;8.87;;
50281;SDS011;36176;51.506;10.272;2023-11-22T10:12:01;10.10;;;9.10;;
50281;SDS011;36176;51.506;10.272;2023-11-22T10:14:28;9.97;;;9.00;;
50281;SDS011;36176;51.506;10.272;2023-11-22T10:17:01;10.83;;;9.80;;
50281;SDS011;36176;51.506;10.272;2023-11-22T10:19:29;9.80;;;8.90;;
50281;SDS011;36176;51.506;10.272;2023-11-22T10:22:07;10.60;;;9.60;;
50281;SDS011;36176;51.506;10.272;2023-11-22T10:24:35;9.60;;;8.57;;
50281;SDS011;36176;51.506;10.272;2023-11-22T10:27:03;10.50;;;9.50;;
50281;SDS011;36176;51.506;10.272;2023-11-22T10:29:30;11.23;;;10.03;;
50281;SDS011;36176;51.506;10.272;2023-11-22T10:31:57;14.70;;;13.30;;
50281;SDS011;36176;51.506;10.272;2023-11-22T10:34:24;11.17;;;10.07;;
50281;SDS011;36176;51.506;10.272;2023-11-22T10:36:52;11.40;;;10.20;;
50281;SDS011;36176;51.506;10.272;2023-11-22T10:39:22;12.20;;;10.60;;
50281;SDS011;36176;51.506;10.272;2023-11-22T10:41:49;10.10;;;9.00;;
50281;SDS011;36176;51.506;10.272;2023-11-22T10:44:19;9.93;;;9.00;;
50281;SDS011;36176;51.506;10.272;2023-11-22T10:46:47;10.73;;;9.67;;
50281;SDS011;36176;51.506;10.272;2023-11-22T10:49:14;10.20;;;9.20;;
50281;SDS011;36176;51.506;10.272;2023-11-22T10:51:44;13.97;;;11.73;;
50281;SDS011;36176;51.506;10.272;2023-11-22T10:54:18;15.30;;;13.37;;
50281;SDS011;36176;51.506;10.272;2023-11-22T10:56:51;13.23;;;11.83;;
50281;SDS011;36176;51.506;10.272;2023-11-22T10:59:22;11.37;;;10.27;;
50281;SDS011;36176;51.506;10.272;2023-11-22T11:01:53;16.20;;;14.53;;
50281;SDS011;36176;51.506;10.272;2023-11-22T11:17:02;10.67;;;9.57;;
50281;SDS011;36176;51.506;10.272;2023-11-22T11:19:34;11.40;;;9.53;;
50281;SDS011;36176;51.506;10.272;2023-11-22T11:22:02;10.50;;;9.50;;
50281;SDS011;36176;51.506;10.272;2023-11-22T11:24:29;11.27;;;9.83;;
50281;SDS011;36176;51.506;10.272;2023-11-22T11:26:58;10.70;;;9.60;;
50281;SDS011;36176;51.506;10.272;2023-11-22T11:29:32;10.80;;;9.73;;
50281;SDS011;36176;51.506;10.272;2023-11-22T11:32:03;10.13;;;9.10;;
50281;SDS011;36176;51.506;10.272;2023-11-22T11:34:31;10.67;;;9.57;;
50281;SDS011;36176;51.506;10.272;2023-11-22T11:37:12;15.17;;;11.90;;
50281;SDS011;36176;51.506;10.272;2023-11-22T12:55:18;8.13;;;7.33;;
50281;SDS011;36176;51.506;10.272;2023-11-22T12:57:55;7.97;;;7.17;;
50281;SDS011;36176;51.506;10.272;2023-11-22T13:00:23;8.10;;;7.17;;
50281;SDS011;36176;51.506;10.272;2023-11-22T13:02:51;8.77;;;7.87;;
50281;SDS011;36176;51.506;10.272;2023-11-22T13:05:29;8.30;;;7.40;;
50281;SDS011;36176;51.506;10.272;2023-11-22T13:07:57;8.83;;;7.93;;
50281;SDS011;36176;51.506;10.272;2023-11-22T13:10:26;8.77;;;7.87;;
50281;SDS011;36176;51.506;10.272;2023-11-22T13:12:53;9.40;;;6.97;;
50281;SDS011;36176;51.506;10.272;2023-11-22T13:15:21;8.50;;;7.60;;
50281;SDS011;36176;51.506;10.272;2023-11-22T13:17:52;8.73;;;7.83;;
50281;SDS011;36176;51.506;10.272;2023-11-22T13:20:19;8.57;;;7.67;;
50281;SDS011;36176;51.506;10.272;2023-11-22T13:22:49;8.40;;;7.60;;
50281;SDS011;36176;51.506;10.272;2023-11-22T13:25:25;8.50;;;7.60;;
50281;SDS011;36176;51.506;10.272;2023-11-22T13:27:55;8.93;;;8.03;;
50281;SDS011;36176;51.506;10.272;2023-11-22T13:30:23;8.20;;;7.40;;
50281;SDS011;36176;51.506;10.272;2023-11-22T13:32:53;9.20;;;7.63;;
50281;SDS011;36176;51.506;10.272;2023-11-22T13:35:20;8.73;;;7.83;;
50281;SDS011;36176;51.506;10.272;2023-11-22T13:37:50;7.70;;;6.90;;
50281;SDS011;36176;51.506;10.272;2023-11-22T13:40:23;9.67;;;7.93;;
50281;SDS011;36176;51.506;10.272;2023-11-22T13:42:54;8.90;;;8.00;;
50281;SDS011;36176;51.506;10.272;2023-11-22T13:45:21;8.63;;;7.73;;
50281;SDS011;36176;51.506;10.272;2023-11-22T13:47:53;8.37;;;7.57;;
50281;SDS011;36176;51.506;10.272;2023-11-22T13:50:24;8.30;;;7.50;;
50281;SDS011;36176;51.506;10.272;2023-11-22T13:52:51;8.37;;;7.50;;
50281;SDS011;36176;51.506;10.272;2023-11-22T13:55:19;8.57;;;7.63;;
50281;SDS011;36176;51.506;10.272;2023-11-22T13:57:47;8.70;;;7.77;;
50281;SDS011;36176;51.506;10.272;2023-11-22T14:00:14;8.67;;;7.73;;
50281;SDS011;36176;51.506;10.272;2023-11-22T14:02:42;9.73;;;8.73;;
50281;SDS011;36176;51.506;10.272;2023-11-22T14:05:10;8.63;;;7.73;;
50281;SDS011;36176;51.506;10.272;2023-11-22T14:07:39;8.00;;;7.20;;
50281;SDS011;36176;51.506;10.272;2023-11-22T14:10:09;8.23;;;7.43;;
50281;SDS011;36176;51.506;10.272;2023-11-22T14:12:37;9.40;;;8.50;;
50281;SDS011;36176;51.506;10.272;2023-11-22T14:15:05;9.93;;;8.10;;
50281;SDS011;36176;51.506;10.272;2023-11-22T14:17:32;8.57;;;7.73;;
50281;SDS011;36176;51.506;10.272;2023-11-22T14:20:00;8.83;;;7.93;;
50281;SDS011;36176;51.506;10.272;2023-11-22T14:22:28;10.87;;;8.20;;
50281;SDS011;36176;51.506;10.272;2023-11-22T14:24:55;9.53;;;7.80;;
50281;SDS011;36176;51.506;10.272;2023-11-22T14:27:22;8.73;;;7.83;;
50281;SDS011;36176;51.506;10.272;2023-11-22T14:29:52;9.47;;;7.73;;
50281;SDS011;36176;51.506;10.272;2023-11-22T14:32:20;8.80;;;7.90;;
50281;SDS011;36176;51.506;10.272;2023-11-22T14:34:48;10.13;;;8.70;;
50281;SDS011;36176;51.506;10.272;2023-11-22T14:37:18;9.17;;;8.27;;
50281;SDS011;36176;51.506;10.272;2023-11-22T14:39:45;9.53;;;8.53;;
50281;SDS011;36176;51.506;10.272;2023-11-22T14:42:12;9.33;;;8.23;;
50281;SDS011;36176;51.506;10.272;2023-11-22T14:44:40;9.50;;;7.87;;
50281;SDS011;36176;51.506;10.272;2023-11-22T14:47:08;9.33;;;8.33;;
50281;SDS011;36176;51.506;10.272;2023-11-22T14:49:35;8.50;;;7.70;;
50281;SDS011;36176;51.506;10.272;2023-11-22T14:52:13;9.00;;;7.83;;
50281;SDS011;36176;51.506;10.272;2023-11-22T14:54:40;9.03;;;7.93;;
50281;SDS011;36176;51.506;10.272;2023-11-22T14:57:08;8.60;;;7.70;;
50281;SDS011;36176;51.506;10.272;2023-11-22T14:59:35;8.83;;;8.00;;
50281;SDS011;36176;51.506;10.272;2023-11-22T15:02:03;8.33;;;7.53;;
50281;SDS011;36176;51.506;10.272;2023-11-22T15:04:30;8.70;;;7.80;;
50281;SDS011;36176;51.506;10.272;2023-11-22T15:06:58;8.87;;;7.90;;
50281;SDS011;36176;51.506;10.272;2023-11-22T15:09:25;9.57;;;8.57;;
50281;SDS011;36176;51.506;10.272;2023-11-22T15:11:55;10.23;;;9.13;;
50281;SDS011;36176;51.506;10.272;2023-11-22T15:14:22;10.03;;;9.03;;
50281;SDS011;36176;51.506;10.272;2023-11-22T15:16:52;10.40;;;9.30;;
50281;SDS011;36176;51.506;10.272;2023-11-22T15:19:19;11.83;;;10.30;;
50281;SDS011;36176;51.506;10.272;2023-11-22T15:21:50;11.57;;;10.30;;
50281;SDS011;36176;51.506;10.272;2023-11-22T15:24:17;12.20;;;10.80;;
50281;SDS011;36176;51.506;10.272;2023-11-22T15:26:45;11.53;;;10.33;;
50281;SDS011;36176;51.506;10.272;2023-11-22T15:29:12;11.63;;;10.43;;
50281;SDS011;36176;51.506;10.272;2023-11-22T15:31:39;12.43;;;10.90;;
50281;SDS011;36176;51.506;10.272;2023-11-22T15:34:06;11.00;;;9.90;;
50281;SDS011;36176;51.506;10.272;2023-11-22T15:36:33;13.13;;;11.73;;
50281;SDS011;36176;51.506;10.272;2023-11-22T15:39:00;11.93;;;10.63;;
50281;SDS011;36176;51.506;10.272;2023-11-22T15:41:28;10.77;;;9.67;;
50281;SDS011;36176;51.506;10.272;2023-11-22T15:43:55;10.73;;;9.63;;
50281;SDS011;36176;51.506;10.272;2023-11-22T15:46:22;10.93;;;9.20;;
50281;SDS011;36176;51.506;10.272;2023-11-22T15:48:50;9.90;;;8.83;;
50281;SDS011;36176;51.506;10.272;2023-11-22T15:51:17;10.30;;;9.20;;
50281;SDS011;36176;51.506;10.272;2023-11-22T15:53:44;13.23;;;10.87;;
50281;SDS011;36176;51.506;10.272;2023-11-22T15:56:12;13.07;;;11.33;;
50281;SDS011;36176;51.506;10.272;2023-11-22T15:58:39;15.77;;;13.10;;
50281;SDS011;36176;51.506;10.272;2023-11-22T16:01:06;15.57;;;13.57;;
50281;SDS011;36176;51.506;10.272;2023-11-22T16:03:33;15.93;;;13.17;;
50281;SDS011;36176;51.506;10.272;2023-11-22T16:06:01;13.90;;;12.27;;
50281;SDS011;36176;51.506;10.272;2023-11-22T16:08:31;11.23;;;10.13;;
50281;SDS011;36176;51.506;10.272;2023-11-22T16:10:58;12.97;;;11.67;;
50281;SDS011;36176;51.506;10.272;2023-11-22T16:13:25;11.77;;;10.17;;
50281;SDS011;36176;51.506;10.272;2023-11-22T16:15:53;9.93;;;8.90;;
50281;SDS011;36176;51.506;10.272;2023-11-22T16:18:20;9.20;;;8.30;;
50281;SDS011;36176;51.506;10.272;2023-11-22T16:20:48;9.03;;;8.13;;
50281;SDS011;36176;51.506;10.272;2023-11-22T16:23:15;9.90;;;8.90;;
50281;SDS011;36176;51.506;10.272;2023-11-22T16:25:42;8.97;;;8.07;;
50281;SDS011;36176;51.506;10.272;2023-11-22T16:28:09;9.27;;;7.90;;
50281;SDS011;36176;51.506;10.272;2023-11-22T16:30:37;8.80;;;7.47;;
50281;SDS011;36176;51.506;10.272;2023-11-22T16:33:04;10.30;;;9.03;;
50281;SDS011;36176;51.506;10.272;2023-11-22T16:35:31;13.23;;;10.20;;
50281;SDS011;36176;51.506;10.272;2023-11-22T16:37:59;11.70;;;9.77;;
50281;SDS011;36176;51.506;10.272;2023-11-22T16:40:26;11.57;;;10.37;;
50281;SDS011;36176;51.506;10.272;2023-11-22T16:42:53;11.73;;;10.47;;
50281;SDS011;36176;51.506;10.272;2023-11-22T16:45:20;13.13;;;10.93;;
50281;SDS011;36176;51.506;10.272;2023-11-22T16:47:47;11.53;;;10.17;;
50281;SDS011;36176;51.506;10.272;2023-11-22T16:50:14;12.00;;;10.80;;
50281;SDS011;36176;51.506;10.272;2023-11-22T16:52:41;14.00;;;12.40;;
50281;SDS011;36176;51.506;10.272;2023-11-22T16:55:09;14.10;;;12.10;;
50281;SDS011;36176;51.506;10.272;2023-11-22T16:57:36;17.07;;;13.70;;
50281;SDS011;36176;51.506;10.272;2023-11-22T17:00:06;16.97;;;12.97;;
50281;SDS011;36176;51.506;10.272;2023-11-22T17:02:34;14.77;;;12.27;;
50281;SDS011;36176;51.506;10.272;2023-11-22T17:05:02;14.07;;;11.87;;
50281;SDS011;36176;51.506;10.272;2023-11-22T17:07:30;13.20;;;11.80;;
50281;SDS011;36176;51.506;10.272;2023-11-22T17:09:57;12.67;;;11.37;;
50281;SDS011;36176;51.506;10.272;2023-11-22T17:12:24;11.87;;;10.50;;
50281;SDS011;36176;51.506;10.272;2023-11-22T17:14:51;11.80;;;9.50;;
50281;SDS011;36176;51.506;10.272;2023-11-22T17:17:18;13.00;;;11.03;;
50281;SDS011;36176;51.506;10.272;2023-11-22T17:19:45;12.73;;;11.10;;
50281;SDS011;36176;51.506;10.272;2023-11-22T17:22:14;11.70;;;10.50;;
50281;SDS011;36176;51.506;10.272;2023-11-22T17:24:41;11.57;;;10.33;;
50281;SDS011;36176;51.506;10.272;2023-11-22T17:27:10;12.27;;;10.97;;
50281;SDS011;36176;51.506;10.272;2023-11-22T17:29:37;12.90;;;11.13;;
50281;SDS011;36176;51.506;10.272;2023-11-22T17:32:04;11.60;;;10.23;;
50281;SDS011;36176;51.506;10.272;2023-11-22T17:34:31;12.87;;;11.57;;
50281;SDS011;36176;51.506;10.272;2023-11-22T17:36:59;11.97;;;10.77;;
50281;SDS011;36176;51.506;10.272;2023-11-22T17:39:26;11.93;;;10.73;;
50281;SDS011;36176;51.506;10.272;2023-11-22T17:41:53;12.27;;;11.07;;
50281;SDS011;36176;51.506;10.272;2023-11-22T17:44:20;13.03;;;11.63;;
50281;SDS011;36176;51.506;10.272;2023-11-22T17:46:47;14.27;;;12.60;;
50281;SDS011;36176;51.506;10.272;2023-11-22T17:49:14;16.20;;;14.23;;
50281;SDS011;36176;51.506;10.272;2023-11-22T17:51:43;15.90;;;14.30;;
50281;SDS011;36176;51.506;10.272;2023-11-22T17:54:10;15.90;;;14.20;;
50281;SDS011;36176;51.506;10.272;2023-11-22T17:56:37;17.40;;;14.80;;
50281;SDS011;36176;51.506;10.272;2023-11-22T17:59:04;21.50;;;17.77;;
50281;SDS011;36176;51.506;10.272;2023-11-22T18:01:31;23.23;;;17.33;;
50281;SDS011;36176;51.506;10.272;2023-11-22T18:03:58;30.60;;;22.53;;
50281;SDS011;36176;51.506;10.272;2023-11-22T18:06:26;29.23;;;22.83;;
50281;SDS011;36176;51.506;10.272;2023-11-22T18:08:53;22.17;;;18.03;;
50281;SDS011;36176;51.506;10.272;2023-11-22T18:11:20;52.53;;;45.00;;
50281;SDS011;36176;51.506;10.272;2023-11-22T18:13:47;24.47;;;21.97;;
50281;SDS011;36176;51.506;10.272;2023-11-22T18:16:14;14.80;;;13.20;;
50281;SDS011;36176;51.506;10.272;2023-11-22T18:18:41;12.60;;;11.30;;
50281;SDS011;36176;51.506;10.272;2023-11-22T18:21:08;16.40;;;14.60;;
50281;SDS011;36176;51.506;10.272;2023-11-22T18:23:35;13.03;;;11.63;;
50281;SDS011;36176;51.506;10.272;2023-11-22T18:26:03;12.07;;;10.40;;
50281;SDS011;36176;51.506;10.272;2023-11-22T18:28:30;16.27;;;14.67;;
50281;SDS011;36176;51.506;10.272;2023-11-22T18:30:57;14.20;;;12.70;;
50281;SDS011;36176;51.506;10.272;2023-11-22T18:33:24;12.07;;;10.80;;
50281;SDS011;36176;51.506;10.272;2023-11-22T18:35:52;12.37;;;10.83;;
50281;SDS011;36176;51.506;10.272;2023-11-22T18:38:19;10.67;;;9.07;;
50281;SDS011;36176;51.506;10.272;2023-11-22T18:40:46;11.47;;;10.33;;
50281;SDS011;36176;51.506;10.272;2023-11-22T18:43:13;12.70;;;11.40;;
50281;SDS011;36176;51.506;10.272;2023-11-22T18:45:41;11.57;;;10.37;;
50281;SDS011;36176;51.506;10.272;2023-11-22T18:48:08;11.70;;;9.90;;
50281;SDS011;36176;51.506;10.272;2023-11-22T18:54:05;12.03;;;10.63;;
50281;SDS011;36176;51.506;10.272;2023-11-22T18:56:32;13.43;;;12.07;;
50281;SDS011;36176;51.506;10.272;2023-11-22T18:58:59;17.60;;;14.63;;
50281;SDS011;36176;51.506;10.272;2023-11-22T19:01:26;67.73;;;47.47;;
50281;SDS011;36176;51.506;10.272;2023-11-22T19:03:54;27.33;;;22.33;;
50281;SDS011;36176;51.506;10.272;2023-11-22T19:06:22;17.90;;;15.93;;
50281;SDS011;36176;51.506;10.272;2023-11-22T19:08:49;13.83;;;11.93;;
50281;SDS011;36176;51.506;10.272;2023-11-22T19:11:16;17.70;;;14.90;;
50281;SDS011;36176;51.506;10.272;2023-11-22T19:13:44;17.83;;;15.43;;
50281;SDS011;36176;51.506;10.272;2023-11-22T19:16:11;14.30;;;12.77;;
50281;SDS011;36176;51.506;10.272;2023-11-22T19:18:38;13.73;;;11.63;;
50281;SDS011;36176;51.506;10.272;2023-11-22T19:21:05;12.73;;;10.90;;
50281;SDS011;36176;51.506;10.272;2023-11-22T19:23:33;16.33;;;12.77;;
50281;SDS011;36176;51.506;10.272;2023-11-22T19:26:00;13.40;;;11.67;;
50281;SDS011;36176;51.506;10.272;2023-11-22T19:28:30;13.60;;;12.13;;
50281;SDS011;36176;51.506;10.272;2023-11-22T19:34:52;13.73;;;11.00;;
50281;SDS011;36176;51.506;10.272;2023-11-22T19:37:19;8.93;;;7.90;;
50281;SDS011;36176;51.506;10.272;2023-11-22T19:39:46;7.13;;;6.43;;
50281;SDS011;36176;51.506;10.272;2023-11-22T19:42:13;6.60;;;5.80;;
50281;SDS011;36176;51.506;10.272;2023-11-22T19:44:40;6.90;;;5.23;;
50281;SDS011;36176;51.506;10.272;2023-11-22T19:47:10;6.80;;;5.60;;
50281;SDS011;36176;51.506;10.272;2023-11-22T19:49:46;7.97;;;6.10;;
50281;SDS011;36176;51.506;10.272;2023-11-22T19:52:13;6.27;;;5.67;;
50281;SDS011;36176;51.506;10.272;2023-11-22T19:54:40;6.20;;;5.60;;
50281;SDS011;36176;51.506;10.272;2023-11-22T19:57:07;6.70;;;6.00;;
50281;SDS011;36176;51.506;10.272;2023-11-22T19:59:35;7.20;;;6.50;;
50281;SDS011;36176;51.506;10.272;2023-11-22T20:02:02;6.70;;;6.10;;
50281;SDS011;36176;51.506;10.272;2023-11-22T20:04:30;9.50;;;8.40;;
50281;SDS011;36176;51.506;10.272;2023-11-22T20:06:57;11.57;;;10.10;;
50281;SDS011;36176;51.506;10.272;2023-11-22T20:09:24;9.17;;;8.10;;
50281;SDS011;36176;51.506;10.272;2023-11-22T20:11:51;11.53;;;9.60;;
50281;SDS011;36176;51.506;10.272;2023-11-22T20:14:19;8.50;;;7.40;;
50281;SDS011;36176;51.506;10.272;2023-11-22T20:16:47;8.53;;;7.23;;
50281;SDS011;36176;51.506;10.272;2023-11-22T20:19:14;6.40;;;5.33;;
50281;SDS011;36176;51.506;10.272;2023-11-22T20:21:41;6.00;;;5.40;;
50281;SDS011;36176;51.506;10.272;2023-11-22T20:24:09;6.87;;;5.43;;
50281;SDS011;36176;51.506;10.272;2023-11-22T20:26:36;6.27;;;5.63;;
50281;SDS011;36176;51.506;10.272;2023-11-22T20:29:03;6.70;;;6.00;;
50281;SDS011;36176;51.506;10.272;2023-11-22T20:31:30;7.27;;;6.40;;
50281;SDS011;36176;51.506;10.272;2023-11-22T20:33:57;7.13;;;6.43;;
50281;SDS011;36176;51.506;10.272;2023-11-22T20:36:25;7.30;;;6.40;;
50281;SDS011;36176;51.506;10.272;2023-11-22T20:38:52;6.87;;;6.17;;
50281;SDS011;36176;51.506;10.272;2023-11-22T20:41:19;6.40;;;5.80;;
50281;SDS011;36176;51.506;10.272;2023-11-22T20:43:47;6.80;;;6.10;;
50281;SDS011;36176;51.506;10.272;2023-11-22T20:46:15;7.43;;;6.70;;
50281;SDS011;36176;51.506;10.272;2023-11-22T20:48:42;7.50;;;6.80;;
50281;SDS011;36176;51.506;10.272;2023-11-22T20:51:09;6.10;;;5.50;;
50281;SDS011;36176;51.506;10.272;2023-11-22T20:53:36;6.50;;;5.90;;
50281;SDS011;36176;51.506;10.272;2023-11-22T20:56:04;8.33;;;6.70;;
50281;SDS011;36176;51.506;10.272;2023-11-22T20:58:32;8.07;;;6.40;;
50281;SDS011;36176;51.506;10.272;2023-11-22T21:00:59;16.17;;;13.23;;
50281;SDS011;36176;51.506;10.272;2023-11-22T21:03:29;7.73;;;6.57;;
50281;SDS011;36176;51.506;10.272;2023-11-22T21:05:57;9.23;;;6.93;;
50281;SDS011;36176;51.506;10.272;2023-11-22T21:08:24;7.70;;;6.27;;
50281;SDS011;36176;51.506;10.272;2023-11-22T21:10:51;5.90;;;5.30;;
50281;SDS011;36176;51.506;10.272;2023-11-22T21:13:18;7.20;;;5.83;;
50281;SDS011;36176;51.506;10.272;2023-11-22T21:15:45;8.57;;;6.77;;
50281;SDS011;36176;51.506;10.272;2023-11-22T21:18:15;8.07;;;6.07;;
50281;SDS011;36176;51.506;10.272;2023-11-22T21:20:43;7.43;;;5.60;;
50281;SDS011;36176;51.506;10.272;2023-11-22T21:23:10;7.07;;;5.93;;